sensor_id;sensor_type;location;lat;lon;timestamp;pressure;altitude;pressure_sealevel;temperature;humidity
55858;BME280;41779;52.360;31.026;2024-03-29T00:05:10;1011;;;13.9;56.5
55858;BME280;41779;52.360;31.026;2024-03-29T00:09:44;1011;;;13.9;56.5
55858;BME280;41779;52.360;31.026;2024-03-29T00:14:50;1011.2;;;13.8;56.9
55858;BME280;41779;52.360;31.026;2024-03-29T00:19:58;1011.2;;;13.8;56.7
55858;BME280;41779;52.360;31.026;2024-03-29T00:24:56;1011.2;;;13.8;56.7
55858;BME280;41779;52.360;31.026;2024-03-29T00:29:52;1011.1;;;13.8;56.9
55858;BME280;41779;52.360;31.026;2024-03-29T00:35:20;1011.1;;;13.7;58
55858;BME280;41779;52.360;31.026;2024-03-29T00:40:00;1011.1;;;13.7;58
55858;BME280;41779;52.360;31.026;2024-03-29T00:45:32;1011.3;;;13.6;58.3
55858;BME280;41779;52.360;31.026;2024-03-29T00:49:46;1011.3;;;13.6;58.3
55858;BME280;41779;52.360;31.026;2024-03-29T00:55:06;1011.5;;;13.5;58.4
55858;BME280;41779;52.360;31.026;2024-03-29T01:00:02;1011.5;;;13.5;58.4
55858;BME280;41779;52.360;31.026;2024-03-29T01:04:58;1011.4;;;13.5;59
55858;BME280;41779;52.360;31.026;2024-03-29T01:10:22;1011.2;;;13.4;60
55858;BME280;41779;52.360;31.026;2024-03-29T01:15:33;1011.2;;;13.4;60
55858;BME280;41779;52.360;31.026;2024-03-29T01:19:44;1011.2;;;13.4;60
55858;BME280;41779;52.360;31.026;2024-03-29T01:25:33;1011.1;;;13.4;60.1
55858;BME280;41779;52.360;31.026;2024-03-29T01:30:34;1011.2;;;13.3;61.1
55858;BME280;41779;52.360;31.026;2024-03-29T01:35:20;1011.2;;;13.3;61.6
55858;BME280;41779;52.360;31.026;2024-03-29T01:40:34;1011.2;;;13.3;61.9
55858;BME280;41779;52.360;31.026;2024-03-29T01:44:52;1011.2;;;13.3;61.9
55858;BME280;41779;52.360;31.026;2024-03-29T01:49:44;1011.1;;;13.2;61.9
55858;BME280;41779;52.360;31.026;2024-03-29T01:54:44;1011.2;;;13.1;62
55858;BME280;41779;52.360;31.026;2024-03-29T02:00:04;1011.2;;;13.1;62.1
55858;BME280;41779;52.360;31.026;2024-03-29T02:05:10;1011.2;;;12.9;63.6
55858;BME280;41779;52.360;31.026;2024-03-29T02:10:15;1011.2;;;12.9;63.4
55858;BME280;41779;52.360;31.026;2024-03-29T02:15:06;1011.2;;;12.8;63.3
55858;BME280;41779;52.360;31.026;2024-03-29T02:20:34;1011.2;;;12.8;64
55858;BME280;41779;52.360;31.026;2024-03-29T02:24:46;1011.2;;;12.8;64
55858;BME280;41779;52.360;31.026;2024-03-29T02:29:52;1011.2;;;12.7;64.6
55858;BME280;41779;52.360;31.026;2024-03-29T02:34:44;1011.2;;;12.7;64.5
55858;BME280;41779;52.360;31.026;2024-03-29T02:40:14;1011.1;;;12.6;64.5
55858;BME280;41779;52.360;31.026;2024-03-29T02:44:46;1011.1;;;12.6;64.5
55858;BME280;41779;52.360;31.026;2024-03-29T02:50:05;1011.1;;;12.6;65
55858;BME280;41779;52.360;31.026;2024-03-29T02:55:22;1011;;;12.5;64.9
55858;BME280;41779;52.360;31.026;2024-03-29T03:00:16;1011;;;12.4;64.9
55858;BME280;41779;52.360;31.026;2024-03-29T03:05:30;1011;;;12.4;65.2
55858;BME280;41779;52.360;31.026;2024-03-29T03:10:16;1011.1;;;12.3;65.6
55858;BME280;41779;52.360;31.026;2024-03-29T03:15:02;1011.1;;;12.3;65.6
55858;BME280;41779;52.360;31.026;2024-03-29T03:20:08;1011.2;;;12.2;65.4
55858;BME280;41779;52.360;31.026;2024-03-29T03:24:44;1011.2;;;12.2;65.4
55858;BME280;41779;52.360;31.026;2024-03-29T03:29:44;1011.2;;;12.2;65.4
55858;BME280;41779;52.360;31.026;2024-03-29T03:34:44;1011.1;;;12.1;65.9
55858;BME280;41779;52.360;31.026;2024-03-29T03:39:44;1011.2;;;12.1;65.9
55858;BME280;41779;52.360;31.026;2024-03-29T03:45:14;1011.4;;;12.1;65.4
55858;BME280;41779;52.360;31.026;2024-03-29T03:50:32;1011.4;;;12;65.6
55858;BME280;41779;52.360;31.026;2024-03-29T03:55:35;1011.4;;;12;65.9
55858;BME280;41779;52.360;31.026;2024-03-29T04:00:32;1011.5;;;12;65.9
55858;BME280;41779;52.360;31.026;2024-03-29T04:04:47;1011.5;;;12;65.9
55858;BME280;41779;52.360;31.026;2024-03-29T04:10:14;1011.6;;;12;65.6
55858;BME280;41779;52.360;31.026;2024-03-29T04:15:32;1011.7;;;12;65.6
55858;BME280;41779;52.360;31.026;2024-03-29T04:20:32;1011.6;;;12;65.6
55858;BME280;41779;52.360;31.026;2024-03-29T04:25:04;1011.6;;;12;65.6
55858;BME280;41779;52.360;31.026;2024-03-29T04:29:46;1011.6;;;12;65.2
55858;BME280;41779;52.360;31.026;2024-03-29T04:35:20;1011.7;;;12.2;64.6
55858;BME280;41779;52.360;31.026;2024-03-29T04:40:34;1011.7;;;12.2;64.1
55858;BME280;41779;52.360;31.026;2024-03-29T04:44:58;1011.7;;;12.2;64.1
55858;BME280;41779;52.360;31.026;2024-03-29T04:50:34;1011.7;;;12.3;63.6
55858;BME280;41779;52.360;31.026;2024-03-29T04:55:10;1011.7;;;12.4;63
55858;BME280;41779;52.360;31.026;2024-03-29T05:00:04;1011.7;;;12.4;63
55858;BME280;41779;52.360;31.026;2024-03-29T05:05:06;1011.7;;;12.7;61.7
55858;BME280;41779;52.360;31.026;2024-03-29T05:09:44;1011.7;;;12.7;61.7
55858;BME280;41779;52.360;31.026;2024-03-29T05:14:44;1011.7;;;12.9;61.1
55858;BME280;41779;52.360;31.026;2024-03-29T05:19:45;1011.8;;;13.2;60.5
55858;BME280;41779;52.360;31.026;2024-03-29T05:25:20;1011.8;;;13.6;58.4
55858;BME280;41779;52.360;31.026;2024-03-29T05:30:34;1011.9;;;13.8;57.3
55858;BME280;41779;52.360;31.026;2024-03-29T05:35:34;1011.9;;;14.1;56.4
55858;BME280;41779;52.360;31.026;2024-03-29T05:40:00;1011.9;;;14.1;56.4
55858;BME280;41779;52.360;31.026;2024-03-29T05:45:22;1011.9;;;14.8;54.6
55858;BME280;41779;52.360;31.026;2024-03-29T05:50:32;1011.9;;;14.8;54.5
55858;BME280;41779;52.360;31.026;2024-03-29T05:55:24;1012;;;15;53.3
55858;BME280;41779;52.360;31.026;2024-03-29T06:00:04;1012;;;15;53.3
55858;BME280;41779;52.360;31.026;2024-03-29T06:05:14;1012.1;;;16.7;48.6
55858;BME280;41779;52.360;31.026;2024-03-29T06:10:04;1012.1;;;16.7;48.6
55858;BME280;41779;52.360;31.026;2024-03-29T06:15:34;1012.1;;;17.2;47.8
55858;BME280;41779;52.360;31.026;2024-03-29T06:19:42;1012.1;;;17.2;47.8
55858;BME280;41779;52.360;31.026;2024-03-29T06:25:34;1012.1;;;18.8;44.3
55858;BME280;41779;52.360;31.026;2024-03-29T06:29:44;1012.1;;;18.8;44.3
55858;BME280;41779;52.360;31.026;2024-03-29T06:34:54;1012.1;;;19.5;41.5
55858;BME280;41779;52.360;31.026;2024-03-29T06:40:02;1012.2;;;19.4;41.2
55858;BME280;41779;52.360;31.026;2024-03-29T06:44:44;1012.3;;;18.3;43
55858;BME280;41779;52.360;31.026;2024-03-29T06:49:44;1012.3;;;17.3;44.4
55858;BME280;41779;52.360;31.026;2024-03-29T06:54:52;1012.4;;;16.6;45.7
55858;BME280;41779;52.360;31.026;2024-03-29T06:59:56;1012.5;;;16.2;46.8
55858;BME280;41779;52.360;31.026;2024-03-29T07:05:04;1012.5;;;17.7;44.9
55858;BME280;41779;52.360;31.026;2024-03-29T07:10:34;1012.3;;;22.6;37.1
55858;BME280;41779;52.360;31.026;2024-03-29T07:15:20;1012.2;;;24.2;35
55858;BME280;41779;52.360;31.026;2024-03-29T07:20:34;1012.2;;;25.3;33.4
55858;BME280;41779;52.360;31.026;2024-03-29T07:25:20;1012.1;;;26.1;32.5
55858;BME280;41779;52.360;31.026;2024-03-29T07:30:24;1012.1;;;26.9;31.4
55858;BME280;41779;52.360;31.026;2024-03-29T07:35:05;1012.1;;;26.9;31.4
55858;BME280;41779;52.360;31.026;2024-03-29T07:40:14;1012.2;;;26.2;29
55858;BME280;41779;52.360;31.026;2024-03-29T07:45:34;1012.2;;;25.8;29.1
55858;BME280;41779;52.360;31.026;2024-03-29T07:50:34;1012.3;;;24.6;29.9
55858;BME280;41779;52.360;31.026;2024-03-29T07:54:44;1012.3;;;24.6;29.9
55858;BME280;41779;52.360;31.026;2024-03-29T08:00:34;1012.3;;;21.3;34
55858;BME280;41779;52.360;31.026;2024-03-29T08:05:34;1012.4;;;20.8;34.7
55858;BME280;41779;52.360;31.026;2024-03-29T08:10:20;1012.4;;;20.8;35.4
55858;BME280;41779;52.360;31.026;2024-03-29T08:15:34;1012.4;;;20.7;35.5
55858;BME280;41779;52.360;31.026;2024-03-29T08:19:44;1012.4;;;20.7;35.5
55858;BME280;41779;52.360;31.026;2024-03-29T08:25:34;1012.4;;;22.4;33.9
55858;BME280;41779;52.360;31.026;2024-03-29T08:30:07;1012.4;;;23.2;32.4
55858;BME280;41779;52.360;31.026;2024-03-29T08:35:04;1012.4;;;23.2;32.4
55858;BME280;41779;52.360;31.026;2024-03-29T08:39:52;1012.5;;;23.5;32.4
55858;BME280;41779;52.360;31.026;2024-03-29T08:45:14;1012.7;;;23.1;31.8
55858;BME280;41779;52.360;31.026;2024-03-29T08:49:44;1012.7;;;23.1;31.8
55858;BME280;41779;52.360;31.026;2024-03-29T08:55:34;1012.8;;;22.2;33.4
55858;BME280;41779;52.360;31.026;2024-03-29T09:00:34;1012.9;;;21.8;33.9
55858;BME280;41779;52.360;31.026;2024-03-29T09:05:24;1013;;;21.2;34.6
55858;BME280;41779;52.360;31.026;2024-03-29T09:10:24;1013.1;;;20.6;35.7
55858;BME280;41779;52.360;31.026;2024-03-29T09:15:14;1013.1;;;19.8;37.3
55858;BME280;41779;52.360;31.026;2024-03-29T09:20:34;1013.2;;;19.2;38.6
55858;BME280;41779;52.360;31.026;2024-03-29T09:25:34;1013.3;;;18.6;39.6
55858;BME280;41779;52.360;31.026;2024-03-29T09:30:20;1013.3;;;18;40.2
55858;BME280;41779;52.360;31.026;2024-03-29T09:35:34;1013.3;;;17.5;40.8
55858;BME280;41779;52.360;31.026;2024-03-29T09:40:34;1013.4;;;17.3;42.1
55858;BME280;41779;52.360;31.026;2024-03-29T09:45:20;1013.5;;;17.1;43.2
55858;BME280;41779;52.360;31.026;2024-03-29T09:50:22;1013.5;;;17;43.7
55858;BME280;41779;52.360;31.026;2024-03-29T09:55:00;1013.5;;;17;43.7
55858;BME280;41779;52.360;31.026;2024-03-29T10:00:12;1013.6;;;16.9;43.5
55858;BME280;41779;52.360;31.026;2024-03-29T10:04:45;1013.6;;;16.9;43.5
55858;BME280;41779;52.360;31.026;2024-03-29T10:09:44;1013.5;;;17;43.5
55858;BME280;41779;52.360;31.026;2024-03-29T10:14:49;1013.5;;;16.9;43.7
55858;BME280;41779;52.360;31.026;2024-03-29T10:20:06;1013.5;;;16.7;45
55858;BME280;41779;52.360;31.026;2024-03-29T10:24:44;1013.5;;;16.7;45
55858;BME280;41779;52.360;31.026;2024-03-29T10:30:34;1013.5;;;16.6;45.3
55858;BME280;41779;52.360;31.026;2024-03-29T10:35:34;1013.5;;;16.4;45.5
55858;BME280;41779;52.360;31.026;2024-03-29T10:40:00;1013.5;;;16.4;45.5
55858;BME280;41779;52.360;31.026;2024-03-29T10:45:34;1013.6;;;16.1;46.8
55858;BME280;41779;52.360;31.026;2024-03-29T10:50:14;1013.7;;;16;47.7
55858;BME280;41779;52.360;31.026;2024-03-29T10:55:24;1013.8;;;15.7;48.3
55858;BME280;41779;52.360;31.026;2024-03-29T11:00:08;1013.8;;;15.6;48.6
55858;BME280;41779;52.360;31.026;2024-03-29T11:05:24;1013.9;;;15.5;48.4
55858;BME280;41779;52.360;31.026;2024-03-29T11:10:23;1014;;;15.5;48.8
55858;BME280;41779;52.360;31.026;2024-03-29T11:15:34;1014;;;15.3;49.8
55858;BME280;41779;52.360;31.026;2024-03-29T11:19:44;1014;;;15.3;49.8
55858;BME280;41779;52.360;31.026;2024-03-29T11:25:24;1014;;;15.4;51.1
55858;BME280;41779;52.360;31.026;2024-03-29T11:30:11;1014;;;15.5;50.9
55858;BME280;41779;52.360;31.026;2024-03-29T11:34:44;1014;;;15.5;50.9
55858;BME280;41779;52.360;31.026;2024-03-29T11:39:53;1014;;;15.6;50.6
55858;BME280;41779;52.360;31.026;2024-03-29T11:44:44;1014;;;15.7;50.6
55858;BME280;41779;52.360;31.026;2024-03-29T11:49:44;1013.9;;;15.7;51
55858;BME280;41779;52.360;31.026;2024-03-29T11:54:58;1013.9;;;15.7;51.7
55858;BME280;41779;52.360;31.026;2024-03-29T12:00:20;1014.1;;;15.8;52.5
55858;BME280;41779;52.360;31.026;2024-03-29T12:05:34;1014.1;;;15.9;52.4
55858;BME280;41779;52.360;31.026;2024-03-29T12:10:34;1014.1;;;15.9;52.5
55858;BME280;41779;52.360;31.026;2024-03-29T12:14:44;1014.1;;;15.9;52.5
55858;BME280;41779;52.360;31.026;2024-03-29T12:20:14;1014.3;;;15.9;53.6
55858;BME280;41779;52.360;31.026;2024-03-29T12:25:35;1014.3;;;15.7;54.1
55858;BME280;41779;52.360;31.026;2024-03-29T12:30:24;1014.3;;;15.7;54.8
55858;BME280;41779;52.360;31.026;2024-03-29T12:34:44;1014.3;;;15.7;54.8
55858;BME280;41779;52.360;31.026;2024-03-29T12:40:07;1014.4;;;15.8;54.5
55858;BME280;41779;52.360;31.026;2024-03-29T12:45:04;1014.4;;;15.8;54.5
55858;BME280;41779;52.360;31.026;2024-03-29T12:50:34;1014.3;;;16;54.8
55858;BME280;41779;52.360;31.026;2024-03-29T12:55:08;1014.4;;;16.1;54.9
55858;BME280;41779;52.360;31.026;2024-03-29T13:00:14;1014.5;;;16.2;54.9
55858;BME280;41779;52.360;31.026;2024-03-29T13:05:10;1014.5;;;16.2;54.7
55858;BME280;41779;52.360;31.026;2024-03-29T13:10:10;1014.6;;;16.2;54.6
55858;BME280;41779;52.360;31.026;2024-03-29T13:15:16;1014.6;;;16.1;54.4
55858;BME280;41779;52.360;31.026;2024-03-29T13:19:44;1014.6;;;16.1;54.4
55858;BME280;41779;52.360;31.026;2024-03-29T13:25:00;1014.6;;;16.1;54.4
55858;BME280;41779;52.360;31.026;2024-03-29T13:29:52;1014.6;;;15.9;54.8
55858;BME280;41779;52.360;31.026;2024-03-29T13:35:24;1014.7;;;15.7;55.5
55858;BME280;41779;52.360;31.026;2024-03-29T13:40:34;1014.8;;;15.6;55.7
55858;BME280;41779;52.360;31.026;2024-03-29T13:45:34;1014.9;;;15.6;55.7
55858;BME280;41779;52.360;31.026;2024-03-29T13:49:52;1014.9;;;15.6;55.7
55858;BME280;41779;52.360;31.026;2024-03-29T13:55:34;1015.1;;;15.5;56.4
55858;BME280;41779;52.360;31.026;2024-03-29T14:00:05;1015.1;;;15.5;56.4
55858;BME280;41779;52.360;31.026;2024-03-29T14:05:24;1015.2;;;15.4;57.1
55858;BME280;41779;52.360;31.026;2024-03-29T14:09:56;1015.2;;;15.4;57.1
55858;BME280;41779;52.360;31.026;2024-03-29T14:15:14;1015.3;;;15.3;56.9
55858;BME280;41779;52.360;31.026;2024-03-29T14:20:34;1015.4;;;15.1;57.1
55858;BME280;41779;52.360;31.026;2024-03-29T14:25:34;1015.5;;;15;57.6
55858;BME280;41779;52.360;31.026;2024-03-29T14:30:11;1015.6;;;14.9;58.4
55858;BME280;41779;52.360;31.026;2024-03-29T14:35:34;1015.6;;;14.8;58.9
55858;BME280;41779;52.360;31.026;2024-03-29T14:40:34;1015.7;;;14.8;59.1
55858;BME280;41779;52.360;31.026;2024-03-29T14:45:21;1015.8;;;14.8;58.9
55858;BME280;41779;52.360;31.026;2024-03-29T14:50:34;1015.9;;;14.9;58.9
55858;BME280;41779;52.360;31.026;2024-03-29T14:54:44;1015.9;;;14.9;58.9
55858;BME280;41779;52.360;31.026;2024-03-29T14:59:44;1016;;;14.8;59.1
55858;BME280;41779;52.360;31.026;2024-03-29T15:04:50;1016.1;;;14.7;60
55858;BME280;41779;52.360;31.026;2024-03-29T15:09:42;1016.3;;;14.6;60.9
55858;BME280;41779;52.360;31.026;2024-03-29T15:15:10;1016.7;;;14.6;61.5
55858;BME280;41779;52.360;31.026;2024-03-29T15:19:58;1016.7;;;14.6;61.5
55858;BME280;41779;52.360;31.026;2024-03-29T15:25:00;1016.9;;;14.7;62
55858;BME280;41779;52.360;31.026;2024-03-29T15:30:34;1017.1;;;14.6;64.2
55858;BME280;41779;52.360;31.026;2024-03-29T15:35:20;1017.6;;;14.5;65.4
55858;BME280;41779;52.360;31.026;2024-03-29T15:40:00;1017.6;;;14.5;65.4
55858;BME280;41779;52.360;31.026;2024-03-29T15:45:05;1017.7;;;14.2;62.7
55858;BME280;41779;52.360;31.026;2024-03-29T15:50:14;1017.5;;;13.7;63.3
55858;BME280;41779;52.360;31.026;2024-03-29T15:55:24;1017.5;;;13.8;63.2
55858;BME280;41779;52.360;31.026;2024-03-29T15:59:56;1017.5;;;13.8;63.2
55858;BME280;41779;52.360;31.026;2024-03-29T16:05:24;1017.5;;;13.8;63.5
55858;BME280;41779;52.360;31.026;2024-03-29T16:10:21;1017.6;;;13.8;63.4
55858;BME280;41779;52.360;31.026;2024-03-29T16:15:34;1017.6;;;13.9;62.9
55858;BME280;41779;52.360;31.026;2024-03-29T16:20:03;1017.6;;;13.9;62.9
55858;BME280;41779;52.360;31.026;2024-03-29T16:25:24;1017.7;;;13.9;62.6
55858;BME280;41779;52.360;31.026;2024-03-29T16:30:11;1017.8;;;13.8;62.7
55858;BME280;41779;52.360;31.026;2024-03-29T16:35:05;1017.8;;;13.8;62.7
55858;BME280;41779;52.360;31.026;2024-03-29T16:39:45;1017.9;;;13.7;63.1
55858;BME280;41779;52.360;31.026;2024-03-29T16:45:03;1018;;;13.6;63.1
55858;BME280;41779;52.360;31.026;2024-03-29T16:50:03;1018.1;;;13.6;63.2
55858;BME280;41779;52.360;31.026;2024-03-29T16:55:01;1018.2;;;13.5;63.2
55858;BME280;41779;52.360;31.026;2024-03-29T17:00:20;1018.5;;;13.3;63.6
55858;BME280;41779;52.360;31.026;2024-03-29T17:05:15;1018.5;;;13.3;64.1
55858;BME280;41779;52.360;31.026;2024-03-29T17:10:35;1018.6;;;13.3;64.6
55858;BME280;41779;52.360;31.026;2024-03-29T17:15:01;1018.6;;;13.3;64.6
55858;BME280;41779;52.360;31.026;2024-03-29T17:20:15;1018.9;;;13.2;64.9
55858;BME280;41779;52.360;31.026;2024-03-29T17:25:26;1019;;;13.1;64.7
55858;BME280;41779;52.360;31.026;2024-03-29T17:29:55;1019;;;13.1;64.7
55858;BME280;41779;52.360;31.026;2024-03-29T17:35:05;1019;;;13;64.4
55858;BME280;41779;52.360;31.026;2024-03-29T17:40:15;1019.1;;;12.8;62.9
55858;BME280;41779;52.360;31.026;2024-03-29T17:44:57;1019.1;;;12.8;62.9
55858;BME280;41779;52.360;31.026;2024-03-29T17:50:35;1019.4;;;12.8;61.9
55858;BME280;41779;52.360;31.026;2024-03-29T17:54:53;1019.4;;;12.8;61.9
55858;BME280;41779;52.360;31.026;2024-03-29T18:00:35;1019.5;;;12.8;61.2
55858;BME280;41779;52.360;31.026;2024-03-29T18:04:45;1019.5;;;12.8;61.2
55858;BME280;41779;52.360;31.026;2024-03-29T18:10:21;1019.5;;;12.8;61.4
55858;BME280;41779;52.360;31.026;2024-03-29T18:14:45;1019.5;;;12.8;61.4
55858;BME280;41779;52.360;31.026;2024-03-29T18:19:45;1019.6;;;12.8;61.6
55858;BME280;41779;52.360;31.026;2024-03-29T18:25:07;1019.7;;;12.6;62.1
55858;BME280;41779;52.360;31.026;2024-03-29T18:29:53;1019.7;;;12.6;62.1
55858;BME280;41779;52.360;31.026;2024-03-29T18:35:03;1019.7;;;12.6;62.4
55858;BME280;41779;52.360;31.026;2024-03-29T18:40:35;1019.8;;;12.5;62.6
55858;BME280;41779;52.360;31.026;2024-03-29T18:45:36;1019.8;;;12.4;63
55858;BME280;41779;52.360;31.026;2024-03-29T18:50:01;1019.8;;;12.4;63
55858;BME280;41779;52.360;31.026;2024-03-29T18:54:47;1019.9;;;12.3;63.2
55858;BME280;41779;52.360;31.026;2024-03-29T19:00:35;1020;;;12.2;62.9
55858;BME280;41779;52.360;31.026;2024-03-29T19:05:25;1020.1;;;12.1;63
55858;BME280;41779;52.360;31.026;2024-03-29T19:09:45;1020.1;;;12.1;63
55858;BME280;41779;52.360;31.026;2024-03-29T19:15:15;1020.1;;;12.1;62.9
55858;BME280;41779;52.360;31.026;2024-03-29T19:19:45;1020.1;;;12.1;62.9
55858;BME280;41779;52.360;31.026;2024-03-29T19:25:35;1020.2;;;12.1;62.8
55858;BME280;41779;52.360;31.026;2024-03-29T19:35:35;1020.4;;;11.9;63.3
55858;BME280;41779;52.360;31.026;2024-03-29T19:40:03;1020.4;;;11.9;63.3
55858;BME280;41779;52.360;31.026;2024-03-29T19:45:13;1020.5;;;11.8;63.4
55858;BME280;41779;52.360;31.026;2024-03-29T19:50:11;1020.5;;;11.8;63.6
55858;BME280;41779;52.360;31.026;2024-03-29T19:55:01;1020.5;;;11.8;63.6
55858;BME280;41779;52.360;31.026;2024-03-29T19:59:45;1020.5;;;11.7;64
55858;BME280;41779;52.360;31.026;2024-03-29T20:04:53;1020.6;;;11.7;64.2
55858;BME280;41779;52.360;31.026;2024-03-29T20:09:45;1020.7;;;11.6;64.3
55858;BME280;41779;52.360;31.026;2024-03-29T20:14:53;1020.8;;;11.6;64.3
55858;BME280;41779;52.360;31.026;2024-03-29T20:20:21;1021;;;11.5;65.3
55858;BME280;41779;52.360;31.026;2024-03-29T20:25:01;1021;;;11.5;65.3
55858;BME280;41779;52.360;31.026;2024-03-29T20:30:35;1021;;;11.4;65.7
55858;BME280;41779;52.360;31.026;2024-03-29T20:35:38;1021;;;11.4;65.8
55858;BME280;41779;52.360;31.026;2024-03-29T20:40:25;1021;;;11.3;66.6
55858;BME280;41779;52.360;31.026;2024-03-29T20:44:57;1021;;;11.3;66.6
55858;BME280;41779;52.360;31.026;2024-03-29T20:50:15;1021.1;;;11.3;66.8
55858;BME280;41779;52.360;31.026;2024-03-29T20:55:35;1021.2;;;11.3;66.6
55858;BME280;41779;52.360;31.026;2024-03-29T20:59:47;1021.2;;;11.3;66.6
55858;BME280;41779;52.360;31.026;2024-03-29T21:05:11;1021.3;;;11.2;67.4
55858;BME280;41779;52.360;31.026;2024-03-29T21:10:35;1021.3;;;11.2;67.6
55858;BME280;41779;52.360;31.026;2024-03-29T21:15:35;1021.3;;;11.2;67.4
55858;BME280;41779;52.360;31.026;2024-03-29T21:20:33;1021.3;;;11.1;67.4
55858;BME280;41779;52.360;31.026;2024-03-29T21:25:33;1021.4;;;11.1;67.9
55858;BME280;41779;52.360;31.026;2024-03-29T21:29:45;1021.4;;;11.1;67.9
55858;BME280;41779;52.360;31.026;2024-03-29T21:35:05;1021.5;;;11;68.2
55858;BME280;41779;52.360;31.026;2024-03-29T21:39:53;1021.6;;;11;68
55858;BME280;41779;52.360;31.026;2024-03-29T21:44:46;1021.6;;;11;67.9
55858;BME280;41779;52.360;31.026;2024-03-29T21:50:17;1021.7;;;11;68.2
55858;BME280;41779;52.360;31.026;2024-03-29T21:54:55;1021.7;;;11;68.2
55858;BME280;41779;52.360;31.026;2024-03-29T21:59:45;1021.7;;;11.1;68.1
55858;BME280;41779;52.360;31.026;2024-03-29T22:05:03;1021.8;;;11.1;67.9
55858;BME280;41779;52.360;31.026;2024-03-29T22:10:21;1021.9;;;11;68.1
55858;BME280;41779;52.360;31.026;2024-03-29T22:14:53;1021.9;;;11;68.1
55858;BME280;41779;52.360;31.026;2024-03-29T22:20:05;1022;;;11;67.8
55858;BME280;41779;52.360;31.026;2024-03-29T22:25:15;1022.1;;;10.9;68.2
55858;BME280;41779;52.360;31.026;2024-03-29T22:30:25;1022.2;;;10.9;68.1
55858;BME280;41779;52.360;31.026;2024-03-29T22:35:05;1022.2;;;10.9;68.1
55858;BME280;41779;52.360;31.026;2024-03-29T22:40:25;1022.2;;;10.9;67.9
55858;BME280;41779;52.360;31.026;2024-03-29T22:45:21;1022.2;;;10.9;68
55858;BME280;41779;52.360;31.026;2024-03-29T22:50:35;1022.2;;;10.9;68
55858;BME280;41779;52.360;31.026;2024-03-29T22:55:21;1022.4;;;10.9;67.9
55858;BME280;41779;52.360;31.026;2024-03-29T22:59:59;1022.4;;;10.9;67.9
55858;BME280;41779;52.360;31.026;2024-03-29T23:04:45;1022.5;;;10.9;67.8
55858;BME280;41779;52.360;31.026;2024-03-29T23:09:55;1022.5;;;10.9;67.7
55858;BME280;41779;52.360;31.026;2024-03-29T23:14:45;1022.6;;;10.9;67.8
55858;BME280;41779;52.360;31.026;2024-03-29T23:19:53;1022.6;;;10.8;67.8
55858;BME280;41779;52.360;31.026;2024-03-29T23:24:45;1022.7;;;10.8;67.8
55858;BME280;41779;52.360;31.026;2024-03-29T23:30:15;1022.8;;;10.7;67.9
55858;BME280;41779;52.360;31.026;2024-03-29T23:34:53;1022.8;;;10.7;67.9
55858;BME280;41779;52.360;31.026;2024-03-29T23:40:35;1022.8;;;10.7;67.9
55858;BME280;41779;52.360;31.026;2024-03-29T23:45:21;1022.7;;;10.7;67.8
55858;BME280;41779;52.360;31.026;2024-03-29T23:50:21;1022.7;;;10.7;67.6
55858;BME280;41779;52.360;31.026;2024-03-29T23:54:58;1022.7;;;10.7;67.6
